sensor_id;sensor_type;location;lat;lon;timestamp;temperature;humidity
2447;DHT22;26430;48.818;9.244;2022-08-19T00:01:28;22.80;99.90
2447;DHT22;26430;48.818;9.244;2022-08-19T00:03:55;22.80;99.90
2447;DHT22;26430;48.818;9.244;2022-08-19T00:06:21;22.80;99.90
2447;DHT22;26430;48.818;9.244;2022-08-19T00:08:46;22.70;99.90
2447;DHT22;26430;48.818;9.244;2022-08-19T00:11:13;22.60;99.90
2447;DHT22;26430;48.818;9.244;2022-08-19T00:13:40;22.70;99.90
2447;DHT22;26430;48.818;9.244;2022-08-19T00:16:06;22.50;99.90
2447;DHT22;26430;48.818;9.244;2022-08-19T00:18:33;22.60;99.90
2447;DHT22;26430;48.818;9.244;2022-08-19T00:20:59;22.70;99.90
2447;DHT22;26430;48.818;9.244;2022-08-19T00:23:25;22.70;99.90
2447;DHT22;26430;48.818;9.244;2022-08-19T00:25:51;22.80;99.90
2447;DHT22;26430;48.818;9.244;2022-08-19T00:28:18;22.50;99.90
2447;DHT22;26430;48.818;9.244;2022-08-19T00:30:44;22.60;99.90
2447;DHT22;26430;48.818;9.244;2022-08-19T00:33:10;22.60;99.90
2447;DHT22;26430;48.818;9.244;2022-08-19T00:35:36;22.70;99.90
2447;DHT22;26430;48.818;9.244;2022-08-19T00:38:04;22.60;99.90
2447;DHT22;26430;48.818;9.244;2022-08-19T00:40:32;22.70;99.90
2447;DHT22;26430;48.818;9.244;2022-08-19T00:42:57;22.60;99.90
2447;DHT22;26430;48.818;9.244;2022-08-19T00:45:25;22.60;99.90
2447;DHT22;26430;48.818;9.244;2022-08-19T00:47:51;22.30;99.90
2447;DHT22;26430;48.818;9.244;2022-08-19T00:50:19;22.30;99.90
2447;DHT22;26430;48.818;9.244;2022-08-19T00:52:49;22.40;99.90
2447;DHT22;26430;48.818;9.244;2022-08-19T00:55:19;22.40;99.90
2447;DHT22;26430;48.818;9.244;2022-08-19T00:58:24;22.50;99.90
2447;DHT22;26430;48.818;9.244;2022-08-19T01:00:43;22.50;99.90
2447;DHT22;26430;48.818;9.244;2022-08-19T01:03:13;22.60;99.90
2447;DHT22;26430;48.818;9.244;2022-08-19T01:05:41;22.50;99.90
2447;DHT22;26430;48.818;9.244;2022-08-19T01:08:08;22.50;99.90
2447;DHT22;26430;48.818;9.244;2022-08-19T01:10:39;22.50;99.90
2447;DHT22;26430;48.818;9.244;2022-08-19T01:13:06;22.60;99.90
2447;DHT22;26430;48.818;9.244;2022-08-19T01:15:41;22.50;99.90
2447;DHT22;26430;48.818;9.244;2022-08-19T01:18:10;22.60;99.90
2447;DHT22;26430;48.818;9.244;2022-08-19T01:20:36;22.60;99.90
2447;DHT22;26430;48.818;9.244;2022-08-19T01:23:02;22.60;99.90
2447;DHT22;26430;48.818;9.244;2022-08-19T01:25:38;22.60;99.90
2447;DHT22;26430;48.818;9.244;2022-08-19T01:28:04;22.50;99.90
2447;DHT22;26430;48.818;9.244;2022-08-19T01:30:34;22.50;99.90
2447;DHT22;26430;48.818;9.244;2022-08-19T01:33:00;22.50;99.90
2447;DHT22;26430;48.818;9.244;2022-08-19T01:35:28;22.60;99.90
2447;DHT22;26430;48.818;9.244;2022-08-19T01:37:58;22.50;99.90
2447;DHT22;26430;48.818;9.244;2022-08-19T01:40:28;22.40;99.90
2447;DHT22;26430;48.818;9.244;2022-08-19T01:42:54;22.30;99.90
2447;DHT22;26430;48.818;9.244;2022-08-19T01:45:23;22.30;99.90
2447;DHT22;26430;48.818;9.244;2022-08-19T01:47:50;22.30;99.90
2447;DHT22;26430;48.818;9.244;2022-08-19T01:50:17;22.40;99.90
2447;DHT22;26430;48.818;9.244;2022-08-19T01:52:43;22.30;99.90
2447;DHT22;26430;48.818;9.244;2022-08-19T01:55:13;22.30;99.90
2447;DHT22;26430;48.818;9.244;2022-08-19T01:57:41;22.30;99.90
2447;DHT22;26430;48.818;9.244;2022-08-19T02:00:11;22.30;99.90
2447;DHT22;26430;48.818;9.244;2022-08-19T02:02:38;22.20;99.90
2447;DHT22;26430;48.818;9.244;2022-08-19T02:05:04;22.20;99.90
2447;DHT22;26430;48.818;9.244;2022-08-19T02:07:29;22.20;99.90
2447;DHT22;26430;48.818;9.244;2022-08-19T02:09:55;22.20;99.90
2447;DHT22;26430;48.818;9.244;2022-08-19T02:12:21;22.20;99.90
2447;DHT22;26430;48.818;9.244;2022-08-19T02:14:47;22.20;99.90
2447;DHT22;26430;48.818;9.244;2022-08-19T02:17:13;22.20;99.90
2447;DHT22;26430;48.818;9.244;2022-08-19T02:19:38;22.10;99.90
2447;DHT22;26430;48.818;9.244;2022-08-19T02:22:05;22.10;99.90
2447;DHT22;26430;48.818;9.244;2022-08-19T02:24:31;22.10;99.90
2447;DHT22;26430;48.818;9.244;2022-08-19T02:26:56;22.10;99.90
2447;DHT22;26430;48.818;9.244;2022-08-19T02:29:24;22.10;99.90
2447;DHT22;26430;48.818;9.244;2022-08-19T02:31:50;22.10;99.90
2447;DHT22;26430;48.818;9.244;2022-08-19T02:34:17;22.00;99.90
2447;DHT22;26430;48.818;9.244;2022-08-19T02:36:42;22.10;99.90
2447;DHT22;26430;48.818;9.244;2022-08-19T02:39:09;22.10;99.90
2447;DHT22;26430;48.818;9.244;2022-08-19T02:41:35;22.20;99.90
2447;DHT22;26430;48.818;9.244;2022-08-19T02:44:03;22.10;99.90
2447;DHT22;26430;48.818;9.244;2022-08-19T02:46:32;22.10;99.90
2447;DHT22;26430;48.818;9.244;2022-08-19T02:49:02;22.10;99.90
2447;DHT22;26430;48.818;9.244;2022-08-19T02:51:34;22.00;99.90
2447;DHT22;26430;48.818;9.244;2022-08-19T02:54:01;22.10;99.90
2447;DHT22;26430;48.818;9.244;2022-08-19T02:56:27;22.00;99.90
2447;DHT22;26430;48.818;9.244;2022-08-19T02:58:57;22.00;99.90
2447;DHT22;26430;48.818;9.244;2022-08-19T03:01:30;22.00;99.90
2447;DHT22;26430;48.818;9.244;2022-08-19T03:03:58;21.90;99.90
2447;DHT22;26430;48.818;9.244;2022-08-19T03:06:25;21.90;99.90
2447;DHT22;26430;48.818;9.244;2022-08-19T03:08:51;21.90;99.90
2447;DHT22;26430;48.818;9.244;2022-08-19T03:11:29;21.70;99.90
2447;DHT22;26430;48.818;9.244;2022-08-19T03:13:55;21.80;99.90
2447;DHT22;26430;48.818;9.244;2022-08-19T03:16:23;21.70;99.90
2447;DHT22;26430;48.818;9.244;2022-08-19T03:18:50;21.80;99.90
2447;DHT22;26430;48.818;9.244;2022-08-19T03:21:21;21.70;99.90
2447;DHT22;26430;48.818;9.244;2022-08-19T03:23:47;21.60;99.90
2447;DHT22;26430;48.818;9.244;2022-08-19T03:26:14;21.70;99.90
2447;DHT22;26430;48.818;9.244;2022-08-19T03:28:44;21.70;99.90
2447;DHT22;26430;48.818;9.244;2022-08-19T03:31:18;21.70;99.90
2447;DHT22;26430;48.818;9.244;2022-08-19T03:33:44;21.70;99.90
2447;DHT22;26430;48.818;9.244;2022-08-19T03:36:18;21.70;99.90
2447;DHT22;26430;48.818;9.244;2022-08-19T03:38:48;21.60;99.90
2447;DHT22;26430;48.818;9.244;2022-08-19T03:41:20;21.70;99.90
2447;DHT22;26430;48.818;9.244;2022-08-19T03:43:47;21.60;99.90
2447;DHT22;26430;48.818;9.244;2022-08-19T03:46:18;21.70;99.90
2447;DHT22;26430;48.818;9.244;2022-08-19T03:48:49;21.70;99.90
2447;DHT22;26430;48.818;9.244;2022-08-19T03:51:31;21.70;99.90
2447;DHT22;26430;48.818;9.244;2022-08-19T03:53:59;21.70;99.90
2447;DHT22;26430;48.818;9.244;2022-08-19T03:56:27;21.70;99.90
2447;DHT22;26430;48.818;9.244;2022-08-19T03:58:57;21.60;99.90
2447;DHT22;26430;48.818;9.244;2022-08-19T04:01:25;21.50;99.90
2447;DHT22;26430;48.818;9.244;2022-08-19T04:03:57;21.40;99.90
2447;DHT22;26430;48.818;9.244;2022-08-19T04:06:25;21.50;99.90
2447;DHT22;26430;48.818;9.244;2022-08-19T04:08:53;21.40;99.90
2447;DHT22;26430;48.818;9.244;2022-08-19T04:11:25;21.40;99.90
2447;DHT22;26430;48.818;9.244;2022-08-19T04:13:53;21.30;99.90
2447;DHT22;26430;48.818;9.244;2022-08-19T04:16:20;21.40;99.90
2447;DHT22;26430;48.818;9.244;2022-08-19T04:18:47;21.40;99.90
2447;DHT22;26430;48.818;9.244;2022-08-19T04:21:18;21.40;99.90
2447;DHT22;26430;48.818;9.244;2022-08-19T04:23:44;21.40;99.90
2447;DHT22;26430;48.818;9.244;2022-08-19T04:26:19;21.40;99.90
2447;DHT22;26430;48.818;9.244;2022-08-19T04:28:46;21.30;99.90
2447;DHT22;26430;48.818;9.244;2022-08-19T04:31:16;21.30;99.90
2447;DHT22;26430;48.818;9.244;2022-08-19T04:33:43;21.20;99.90
2447;DHT22;26430;48.818;9.244;2022-08-19T04:36:22;21.30;99.90
2447;DHT22;26430;48.818;9.244;2022-08-19T04:38:48;21.30;99.90
2447;DHT22;26430;48.818;9.244;2022-08-19T04:41:15;21.30;99.90
2447;DHT22;26430;48.818;9.244;2022-08-19T04:44:00;21.30;99.90
2447;DHT22;26430;48.818;9.244;2022-08-19T04:46:27;21.30;99.90
2447;DHT22;26430;48.818;9.244;2022-08-19T04:48:55;21.30;99.90
2447;DHT22;26430;48.818;9.244;2022-08-19T04:51:22;21.30;99.90
2447;DHT22;26430;48.818;9.244;2022-08-19T04:53:48;21.30;99.90
2447;DHT22;26430;48.818;9.244;2022-08-19T04:56:17;21.30;99.90
2447;DHT22;26430;48.818;9.244;2022-08-19T04:58:44;21.30;99.90
2447;DHT22;26430;48.818;9.244;2022-08-19T05:01:17;21.20;99.90
2447;DHT22;26430;48.818;9.244;2022-08-19T05:03:43;21.30;99.90
2447;DHT22;26430;48.818;9.244;2022-08-19T05:06:11;21.40;99.90
2447;DHT22;26430;48.818;9.244;2022-08-19T05:08:40;21.30;99.90
2447;DHT22;26430;48.818;9.244;2022-08-19T05:11:29;21.40;99.90
2447;DHT22;26430;48.818;9.244;2022-08-19T05:13:55;21.30;99.90
2447;DHT22;26430;48.818;9.244;2022-08-19T05:16:22;21.30;99.90
2447;DHT22;26430;48.818;9.244;2022-08-19T05:18:49;21.30;99.90
2447;DHT22;26430;48.818;9.244;2022-08-19T05:21:34;21.30;99.90
2447;DHT22;26430;48.818;9.244;2022-08-19T05:24:19;21.30;99.90
2447;DHT22;26430;48.818;9.244;2022-08-19T05:26:48;21.30;99.90
2447;DHT22;26430;48.818;9.244;2022-08-19T05:29:16;21.40;99.90
2447;DHT22;26430;48.818;9.244;2022-08-19T05:31:42;21.30;99.90
2447;DHT22;26430;48.818;9.244;2022-08-19T05:34:09;21.30;99.90
2447;DHT22;26430;48.818;9.244;2022-08-19T05:36:37;21.30;99.90
2447;DHT22;26430;48.818;9.244;2022-08-19T05:39:06;21.20;99.90
2447;DHT22;26430;48.818;9.244;2022-08-19T05:41:32;21.20;99.90
2447;DHT22;26430;48.818;9.244;2022-08-19T05:44:00;21.20;99.90
2447;DHT22;26430;48.818;9.244;2022-08-19T05:46:26;21.30;99.90
2447;DHT22;26430;48.818;9.244;2022-08-19T05:48:52;21.30;99.90
2447;DHT22;26430;48.818;9.244;2022-08-19T05:51:18;21.30;99.90
2447;DHT22;26430;48.818;9.244;2022-08-19T05:53:44;21.20;99.90
2447;DHT22;26430;48.818;9.244;2022-08-19T05:56:15;21.10;99.90
2447;DHT22;26430;48.818;9.244;2022-08-19T05:58:42;21.20;99.90
2447;DHT22;26430;48.818;9.244;2022-08-19T06:01:14;21.20;99.90
2447;DHT22;26430;48.818;9.244;2022-08-19T06:03:41;21.20;99.90
2447;DHT22;26430;48.818;9.244;2022-08-19T06:06:09;21.20;99.90
2447;DHT22;26430;48.818;9.244;2022-08-19T06:08:35;21.10;99.90
2447;DHT22;26430;48.818;9.244;2022-08-19T06:13:43;21.20;99.90
2447;DHT22;26430;48.818;9.244;2022-08-19T06:16:10;21.10;99.90
2447;DHT22;26430;48.818;9.244;2022-08-19T06:18:36;21.10;99.90
2447;DHT22;26430;48.818;9.244;2022-08-19T06:21:01;21.20;99.90
2447;DHT22;26430;48.818;9.244;2022-08-19T06:23:29;21.10;99.90
2447;DHT22;26430;48.818;9.244;2022-08-19T06:25:54;21.10;99.90
2447;DHT22;26430;48.818;9.244;2022-08-19T06:28:20;21.20;99.90
2447;DHT22;26430;48.818;9.244;2022-08-19T06:30:46;21.10;99.90
2447;DHT22;26430;48.818;9.244;2022-08-19T06:33:12;21.10;99.90
2447;DHT22;26430;48.818;9.244;2022-08-19T06:35:39;21.10;99.90
2447;DHT22;26430;48.818;9.244;2022-08-19T06:38:05;21.10;99.90
2447;DHT22;26430;48.818;9.244;2022-08-19T06:40:31;21.20;99.90
2447;DHT22;26430;48.818;9.244;2022-08-19T06:42:57;21.30;99.90
2447;DHT22;26430;48.818;9.244;2022-08-19T06:45:25;21.30;99.90
2447;DHT22;26430;48.818;9.244;2022-08-19T06:47:52;21.30;99.90
2447;DHT22;26430;48.818;9.244;2022-08-19T06:50:22;21.30;99.90
2447;DHT22;26430;48.818;9.244;2022-08-19T06:52:48;21.30;99.90
2447;DHT22;26430;48.818;9.244;2022-08-19T06:55:14;21.40;99.90
2447;DHT22;26430;48.818;9.244;2022-08-19T06:57:41;21.40;99.90
2447;DHT22;26430;48.818;9.244;2022-08-19T07:00:08;21.30;99.90
2447;DHT22;26430;48.818;9.244;2022-08-19T07:02:39;21.40;99.90
2447;DHT22;26430;48.818;9.244;2022-08-19T07:05:05;21.20;99.90
2447;DHT22;26430;48.818;9.244;2022-08-19T07:07:31;21.30;99.90
2447;DHT22;26430;48.818;9.244;2022-08-19T07:09:56;21.30;99.90
2447;DHT22;26430;48.818;9.244;2022-08-19T07:12:22;21.40;99.90
2447;DHT22;26430;48.818;9.244;2022-08-19T07:14:48;21.40;99.90
2447;DHT22;26430;48.818;9.244;2022-08-19T07:17:14;21.40;99.90
2447;DHT22;26430;48.818;9.244;2022-08-19T07:19:41;21.40;99.90
2447;DHT22;26430;48.818;9.244;2022-08-19T07:22:10;21.40;99.90
2447;DHT22;26430;48.818;9.244;2022-08-19T07:24:36;21.30;99.90
2447;DHT22;26430;48.818;9.244;2022-08-19T07:27:04;21.40;99.90
2447;DHT22;26430;48.818;9.244;2022-08-19T07:29:32;21.40;99.90
2447;DHT22;26430;48.818;9.244;2022-08-19T07:32:00;21.30;99.90
2447;DHT22;26430;48.818;9.244;2022-08-19T07:34:28;21.30;99.90
2447;DHT22;26430;48.818;9.244;2022-08-19T07:36:54;21.40;99.90
2447;DHT22;26430;48.818;9.244;2022-08-19T07:39:24;21.40;99.90
2447;DHT22;26430;48.818;9.244;2022-08-19T07:41:53;21.40;99.90
2447;DHT22;26430;48.818;9.244;2022-08-19T07:44:20;21.40;99.90
2447;DHT22;26430;48.818;9.244;2022-08-19T07:46:49;21.40;99.90
2447;DHT22;26430;48.818;9.244;2022-08-19T07:49:16;21.40;99.90
2447;DHT22;26430;48.818;9.244;2022-08-19T07:51:47;21.40;99.90
2447;DHT22;26430;48.818;9.244;2022-08-19T07:54:13;21.40;99.90
2447;DHT22;26430;48.818;9.244;2022-08-19T07:56:40;21.50;99.90
2447;DHT22;26430;48.818;9.244;2022-08-19T07:59:05;21.50;99.90
2447;DHT22;26430;48.818;9.244;2022-08-19T08:01:31;21.40;99.90
2447;DHT22;26430;48.818;9.244;2022-08-19T08:03:57;21.40;99.90
2447;DHT22;26430;48.818;9.244;2022-08-19T08:06:42;21.40;99.90
2447;DHT22;26430;48.818;9.244;2022-08-19T08:09:33;21.40;99.90
2447;DHT22;26430;48.818;9.244;2022-08-19T08:12:03;21.40;99.90
2447;DHT22;26430;48.818;9.244;2022-08-19T08:14:35;21.40;99.90
2447;DHT22;26430;48.818;9.244;2022-08-19T08:17:03;21.40;99.90
2447;DHT22;26430;48.818;9.244;2022-08-19T08:19:29;21.40;99.90
2447;DHT22;26430;48.818;9.244;2022-08-19T08:21:58;21.50;99.90
2447;DHT22;26430;48.818;9.244;2022-08-19T08:24:27;21.50;99.90
2447;DHT22;26430;48.818;9.244;2022-08-19T08:26:53;21.40;99.90
2447;DHT22;26430;48.818;9.244;2022-08-19T08:29:19;21.40;99.90
2447;DHT22;26430;48.818;9.244;2022-08-19T08:31:46;21.40;99.90
2447;DHT22;26430;48.818;9.244;2022-08-19T08:34:13;21.40;99.90
2447;DHT22;26430;48.818;9.244;2022-08-19T08:36:42;21.50;99.90
2447;DHT22;26430;48.818;9.244;2022-08-19T08:39:09;21.60;99.90
2447;DHT22;26430;48.818;9.244;2022-08-19T08:44:54;21.70;99.90
2447;DHT22;26430;48.818;9.244;2022-08-19T08:47:22;21.70;99.90
2447;DHT22;26430;48.818;9.244;2022-08-19T08:49:59;21.70;99.90
2447;DHT22;26430;48.818;9.244;2022-08-19T08:52:30;21.90;99.90
2447;DHT22;26430;48.818;9.244;2022-08-19T08:55:05;22.10;99.90
2447;DHT22;26430;48.818;9.244;2022-08-19T08:57:53;22.30;99.90
2447;DHT22;26430;48.818;9.244;2022-08-19T09:00:26;22.30;99.90
2447;DHT22;26430;48.818;9.244;2022-08-19T09:02:56;22.40;99.90
2447;DHT22;26430;48.818;9.244;2022-08-19T09:05:25;22.40;99.90
2447;DHT22;26430;48.818;9.244;2022-08-19T09:08:45;22.40;99.90
2447;DHT22;26430;48.818;9.244;2022-08-19T09:10:53;22.50;99.90
2447;DHT22;26430;48.818;9.244;2022-08-19T09:16:13;22.70;99.90
2447;DHT22;26430;48.818;9.244;2022-08-19T09:18:41;22.60;99.90
2447;DHT22;26430;48.818;9.244;2022-08-19T09:21:08;22.50;99.90
2447;DHT22;26430;48.818;9.244;2022-08-19T09:23:35;22.50;99.90
2447;DHT22;26430;48.818;9.244;2022-08-19T09:26:05;22.30;99.90
2447;DHT22;26430;48.818;9.244;2022-08-19T09:28:31;22.20;99.90
2447;DHT22;26430;48.818;9.244;2022-08-19T09:30:57;22.20;99.90
2447;DHT22;26430;48.818;9.244;2022-08-19T09:33:22;22.20;99.90
2447;DHT22;26430;48.818;9.244;2022-08-19T09:35:49;22.00;99.90
2447;DHT22;26430;48.818;9.244;2022-08-19T09:38:14;22.10;99.90
2447;DHT22;26430;48.818;9.244;2022-08-19T09:40:40;22.10;99.90
2447;DHT22;26430;48.818;9.244;2022-08-19T09:43:06;22.00;99.90
2447;DHT22;26430;48.818;9.244;2022-08-19T09:45:31;22.10;99.90
2447;DHT22;26430;48.818;9.244;2022-08-19T09:47:57;22.10;99.90
2447;DHT22;26430;48.818;9.244;2022-08-19T09:50:23;22.00;99.90
2447;DHT22;26430;48.818;9.244;2022-08-19T09:52:49;22.00;99.90
2447;DHT22;26430;48.818;9.244;2022-08-19T09:55:15;22.00;99.90
2447;DHT22;26430;48.818;9.244;2022-08-19T09:57:42;21.90;99.90
2447;DHT22;26430;48.818;9.244;2022-08-19T10:00:09;21.80;99.90
2447;DHT22;26430;48.818;9.244;2022-08-19T10:02:35;21.80;99.90
2447;DHT22;26430;48.818;9.244;2022-08-19T10:05:01;21.70;99.90
2447;DHT22;26430;48.818;9.244;2022-08-19T10:07:45;21.70;99.90
2447;DHT22;26430;48.818;9.244;2022-08-19T10:10:11;21.60;99.90
2447;DHT22;26430;48.818;9.244;2022-08-19T10:12:37;21.50;99.90
2447;DHT22;26430;48.818;9.244;2022-08-19T10:15:05;21.40;99.90
2447;DHT22;26430;48.818;9.244;2022-08-19T10:17:31;21.30;99.90
2447;DHT22;26430;48.818;9.244;2022-08-19T10:19:59;21.30;99.90
2447;DHT22;26430;48.818;9.244;2022-08-19T10:22:25;21.30;99.90
2447;DHT22;26430;48.818;9.244;2022-08-19T10:24:51;21.30;99.90
2447;DHT22;26430;48.818;9.244;2022-08-19T10:27:17;21.50;99.90
2447;DHT22;26430;48.818;9.244;2022-08-19T10:29:43;21.50;99.90
2447;DHT22;26430;48.818;9.244;2022-08-19T10:32:09;21.50;99.90
2447;DHT22;26430;48.818;9.244;2022-08-19T10:34:37;21.60;99.90
2447;DHT22;26430;48.818;9.244;2022-08-19T10:37:04;21.60;99.90
2447;DHT22;26430;48.818;9.244;2022-08-19T10:39:33;21.60;99.90
2447;DHT22;26430;48.818;9.244;2022-08-19T10:41:59;21.70;99.90
2447;DHT22;26430;48.818;9.244;2022-08-19T10:44:25;21.80;99.90
2447;DHT22;26430;48.818;9.244;2022-08-19T10:46:50;21.90;99.90
2447;DHT22;26430;48.818;9.244;2022-08-19T10:49:17;21.90;99.90
2447;DHT22;26430;48.818;9.244;2022-08-19T10:51:44;21.70;99.90
2447;DHT22;26430;48.818;9.244;2022-08-19T10:54:29;21.80;99.90
2447;DHT22;26430;48.818;9.244;2022-08-19T10:57:14;21.80;99.90
2447;DHT22;26430;48.818;9.244;2022-08-19T10:59:40;21.70;99.90
2447;DHT22;26430;48.818;9.244;2022-08-19T11:02:08;21.60;99.90
2447;DHT22;26430;48.818;9.244;2022-08-19T11:04:39;21.50;99.90
2447;DHT22;26430;48.818;9.244;2022-08-19T11:07:05;21.50;99.90
2447;DHT22;26430;48.818;9.244;2022-08-19T11:09:36;21.60;99.90
2447;DHT22;26430;48.818;9.244;2022-08-19T11:12:03;21.50;99.90
2447;DHT22;26430;48.818;9.244;2022-08-19T11:14:30;21.50;99.90
2447;DHT22;26430;48.818;9.244;2022-08-19T11:16:58;21.50;99.90
2447;DHT22;26430;48.818;9.244;2022-08-19T11:19:24;21.50;99.90
2447;DHT22;26430;48.818;9.244;2022-08-19T11:21:51;21.60;99.90
2447;DHT22;26430;48.818;9.244;2022-08-19T11:24:20;21.50;99.90
2447;DHT22;26430;48.818;9.244;2022-08-19T11:26:47;21.50;99.90
2447;DHT22;26430;48.818;9.244;2022-08-19T11:29:19;21.50;99.90
2447;DHT22;26430;48.818;9.244;2022-08-19T11:31:48;21.50;99.90
2447;DHT22;26430;48.818;9.244;2022-08-19T11:34:20;21.60;99.90
2447;DHT22;26430;48.818;9.244;2022-08-19T11:36:47;21.60;99.90
2447;DHT22;26430;48.818;9.244;2022-08-19T11:39:17;21.70;99.90
2447;DHT22;26430;48.818;9.244;2022-08-19T11:41:43;21.70;99.90
2447;DHT22;26430;48.818;9.244;2022-08-19T11:44:10;21.70;99.90
2447;DHT22;26430;48.818;9.244;2022-08-19T11:46:37;21.90;99.90
2447;DHT22;26430;48.818;9.244;2022-08-19T11:49:04;22.00;99.90
2447;DHT22;26430;48.818;9.244;2022-08-19T11:51:31;21.90;99.90
2447;DHT22;26430;48.818;9.244;2022-08-19T11:53:58;21.80;99.90
2447;DHT22;26430;48.818;9.244;2022-08-19T11:56:26;21.90;99.90
2447;DHT22;26430;48.818;9.244;2022-08-19T11:58:53;22.00;99.90
2447;DHT22;26430;48.818;9.244;2022-08-19T12:01:22;22.10;99.90
2447;DHT22;26430;48.818;9.244;2022-08-19T12:03:51;22.00;99.90
2447;DHT22;26430;48.818;9.244;2022-08-19T12:06:21;22.00;99.90
2447;DHT22;26430;48.818;9.244;2022-08-19T12:08:51;22.00;99.90
2447;DHT22;26430;48.818;9.244;2022-08-19T12:11:17;21.90;99.90
2447;DHT22;26430;48.818;9.244;2022-08-19T12:13:44;21.90;99.90
2447;DHT22;26430;48.818;9.244;2022-08-19T12:16:22;21.90;99.90
2447;DHT22;26430;48.818;9.244;2022-08-19T12:18:49;21.80;99.90
2447;DHT22;26430;48.818;9.244;2022-08-19T12:21:19;21.80;99.90
2447;DHT22;26430;48.818;9.244;2022-08-19T12:23:48;21.80;99.90
2447;DHT22;26430;48.818;9.244;2022-08-19T12:26:15;21.70;99.90
2447;DHT22;26430;48.818;9.244;2022-08-19T12:28:41;21.80;99.90
2447;DHT22;26430;48.818;9.244;2022-08-19T12:31:07;21.70;99.90
2447;DHT22;26430;48.818;9.244;2022-08-19T12:33:32;21.70;99.90
2447;DHT22;26430;48.818;9.244;2022-08-19T12:36:04;21.80;99.90
2447;DHT22;26430;48.818;9.244;2022-08-19T12:38:31;21.70;99.90
2447;DHT22;26430;48.818;9.244;2022-08-19T12:40:57;21.60;99.90
2447;DHT22;26430;48.818;9.244;2022-08-19T12:43:23;21.40;99.90
2447;DHT22;26430;48.818;9.244;2022-08-19T12:45:49;21.30;99.90
2447;DHT22;26430;48.818;9.244;2022-08-19T12:48:15;21.10;99.90
2447;DHT22;26430;48.818;9.244;2022-08-19T12:50:42;21.10;99.90
2447;DHT22;26430;48.818;9.244;2022-08-19T12:53:10;21.10;99.90
2447;DHT22;26430;48.818;9.244;2022-08-19T12:55:35;21.10;99.90
2447;DHT22;26430;48.818;9.244;2022-08-19T12:58:01;21.10;99.90
2447;DHT22;26430;48.818;9.244;2022-08-19T13:00:27;21.10;99.90
2447;DHT22;26430;48.818;9.244;2022-08-19T13:02:54;21.10;99.90
2447;DHT22;26430;48.818;9.244;2022-08-19T13:05:22;21.10;99.90
2447;DHT22;26430;48.818;9.244;2022-08-19T13:07:51;21.20;99.90
2447;DHT22;26430;48.818;9.244;2022-08-19T13:10:20;21.10;99.90
2447;DHT22;26430;48.818;9.244;2022-08-19T13:12:47;21.10;99.90
2447;DHT22;26430;48.818;9.244;2022-08-19T13:15:15;21.00;99.90
2447;DHT22;26430;48.818;9.244;2022-08-19T13:17:43;20.90;99.90
2447;DHT22;26430;48.818;9.244;2022-08-19T13:20:10;20.90;99.90
2447;DHT22;26430;48.818;9.244;2022-08-19T13:22:36;20.80;99.90
2447;DHT22;26430;48.818;9.244;2022-08-19T13:25:04;20.80;99.90
2447;DHT22;26430;48.818;9.244;2022-08-19T13:27:30;20.80;99.90
2447;DHT22;26430;48.818;9.244;2022-08-19T13:29:56;20.70;99.90
2447;DHT22;26430;48.818;9.244;2022-08-19T13:32:40;20.60;99.90
2447;DHT22;26430;48.818;9.244;2022-08-19T13:35:25;20.60;99.90
2447;DHT22;26430;48.818;9.244;2022-08-19T13:37:51;20.60;99.90
2447;DHT22;26430;48.818;9.244;2022-08-19T13:40:22;20.40;99.90
2447;DHT22;26430;48.818;9.244;2022-08-19T13:42:51;20.30;99.90
2447;DHT22;26430;48.818;9.244;2022-08-19T13:45:21;20.30;99.90
2447;DHT22;26430;48.818;9.244;2022-08-19T13:47:49;20.50;99.90
2447;DHT22;26430;48.818;9.244;2022-08-19T13:50:18;20.40;99.90
2447;DHT22;26430;48.818;9.244;2022-08-19T13:52:44;20.50;99.90
2447;DHT22;26430;48.818;9.244;2022-08-19T13:55:11;20.40;99.90
2447;DHT22;26430;48.818;9.244;2022-08-19T13:57:37;20.10;99.90
2447;DHT22;26430;48.818;9.244;2022-08-19T14:00:13;19.90;99.90
2447;DHT22;26430;48.818;9.244;2022-08-19T14:02:41;19.90;99.90
2447;DHT22;26430;48.818;9.244;2022-08-19T14:05:09;19.70;99.90
2447;DHT22;26430;48.818;9.244;2022-08-19T14:07:37;19.70;99.90
2447;DHT22;26430;48.818;9.244;2022-08-19T14:10:08;19.60;99.90
2447;DHT22;26430;48.818;9.244;2022-08-19T14:12:34;19.50;99.90
2447;DHT22;26430;48.818;9.244;2022-08-19T14:15:00;19.50;99.90
2447;DHT22;26430;48.818;9.244;2022-08-19T14:17:26;19.50;99.90
2447;DHT22;26430;48.818;9.244;2022-08-19T14:20:03;19.40;99.90
2447;DHT22;26430;48.818;9.244;2022-08-19T14:22:31;19.40;99.90
2447;DHT22;26430;48.818;9.244;2022-08-19T14:24:58;19.40;99.90
2447;DHT22;26430;48.818;9.244;2022-08-19T14:27:23;19.30;99.90
2447;DHT22;26430;48.818;9.244;2022-08-19T14:29:51;19.30;99.90
2447;DHT22;26430;48.818;9.244;2022-08-19T14:32:17;19.30;99.90
2447;DHT22;26430;48.818;9.244;2022-08-19T14:34:43;19.40;99.90
2447;DHT22;26430;48.818;9.244;2022-08-19T14:37:14;19.40;99.90
2447;DHT22;26430;48.818;9.244;2022-08-19T14:39:42;19.50;99.90
2447;DHT22;26430;48.818;9.244;2022-08-19T14:42:09;19.50;99.90
2447;DHT22;26430;48.818;9.244;2022-08-19T14:44:35;19.60;99.90
2447;DHT22;26430;48.818;9.244;2022-08-19T14:47:01;19.60;99.90
2447;DHT22;26430;48.818;9.244;2022-08-19T14:49:27;19.60;99.90
2447;DHT22;26430;48.818;9.244;2022-08-19T14:51:53;19.60;99.90
2447;DHT22;26430;48.818;9.244;2022-08-19T14:54:19;19.60;99.90
2447;DHT22;26430;48.818;9.244;2022-08-19T14:56:44;19.70;99.90
2447;DHT22;26430;48.818;9.244;2022-08-19T14:59:10;19.60;99.90
2447;DHT22;26430;48.818;9.244;2022-08-19T15:01:36;19.70;99.90
2447;DHT22;26430;48.818;9.244;2022-08-19T15:04:02;19.70;99.90
2447;DHT22;26430;48.818;9.244;2022-08-19T15:06:28;19.70;99.90
2447;DHT22;26430;48.818;9.244;2022-08-19T15:08:54;19.80;99.90
2447;DHT22;26430;48.818;9.244;2022-08-19T15:11:24;19.80;99.90
2447;DHT22;26430;48.818;9.244;2022-08-19T15:13:54;20.00;99.90
2447;DHT22;26430;48.818;9.244;2022-08-19T15:16:20;20.10;99.90
2447;DHT22;26430;48.818;9.244;2022-08-19T15:18:49;20.20;99.90
2447;DHT22;26430;48.818;9.244;2022-08-19T15:21:15;20.30;99.90
2447;DHT22;26430;48.818;9.244;2022-08-19T15:23:45;20.10;99.90
2447;DHT22;26430;48.818;9.244;2022-08-19T15:26:11;20.20;99.90
2447;DHT22;26430;48.818;9.244;2022-08-19T15:28:39;20.20;99.90
2447;DHT22;26430;48.818;9.244;2022-08-19T15:31:05;20.20;99.90
2447;DHT22;26430;48.818;9.244;2022-08-19T15:33:32;20.20;99.90
2447;DHT22;26430;48.818;9.244;2022-08-19T15:36:01;20.20;99.90
2447;DHT22;26430;48.818;9.244;2022-08-19T15:38:31;20.20;99.90
2447;DHT22;26430;48.818;9.244;2022-08-19T15:41:00;20.30;99.90
2447;DHT22;26430;48.818;9.244;2022-08-19T15:43:47;20.30;99.90
2447;DHT22;26430;48.818;9.244;2022-08-19T15:46:19;20.50;99.90
2447;DHT22;26430;48.818;9.244;2022-08-19T15:48:47;20.50;99.90
2447;DHT22;26430;48.818;9.244;2022-08-19T15:51:13;20.50;99.90
2447;DHT22;26430;48.818;9.244;2022-08-19T15:53:40;20.50;99.90
2447;DHT22;26430;48.818;9.244;2022-08-19T15:56:09;20.40;99.90
2447;DHT22;26430;48.818;9.244;2022-08-19T15:58:35;20.60;99.90
2447;DHT22;26430;48.818;9.244;2022-08-19T16:01:20;20.70;99.90